Airfield :
LOGIN :

Register | Disclaimer

   EN    FR    IT 

 










Legend :    VFR   Marginal VFR   IFR   Intensive IFR   Very Intensive IFR
Visi :
Ceiling :
>= 8 km
>= 3000ft
5 to 8 km
1000 to 3000 ft
1500m to 5 km
500 to 1000 ft
800 to 1500m
200 to 500 ft
< 800m
< 200 ft
Symbols :   Thunderstorms  Fog  Heavy snow  Heavy precipitations  Wind > 20 kt
SIGMETs :     Misc.  Thunderstorms  Icing  Turbulence  Mountain Waves  Volcanic Ashes






- Airport Elevation : 1345 ft
- IATA code : FRZ


ETHF - Fritzlar

CURRENT METAR :
  • 210340Z 32001KT 0200 FZFG M04/M05 Q1043 RED

EXPIRED METARs :
  • 210320Z 33001KT 0800 FZFG M04/M05 Q1043 AMB
  • 210305Z 33001KT 0800 FZFG M04/M05 Q1043 AMB
  • 210220Z 32002KT 0600 FZFG M04/M05 Q1044 RED
  • 210210Z 29001KT 0800 FZFG M04/M05 Q1044 AMB
  • 210150Z 27001KT 8000 MIFG M04/M05 Q1044 BLU+
  • 210120Z 29001KT 0800 FZFG M05/M05 Q1044 AMB
  • 210105Z 00000KT 0800 FZFG M05/M05 Q1044 AMB

Expired Forecast.



MET'MAP, your aeronautical weather chart ! - Copyright ORBIFLY December 2007 - Disclaimer

ORBIFLY MET'MAP TEAM :

Programming & Development : Alexandra Zaïnal
Concept & original design : Baudouin d'Aumeries
Assistance for programming : Marc-Olivier Méhu
Technical & hardware support : Manuel Goepfert

Contact : metmap@orbifly.com




SOURCES & CREDITS :

   NOAA